sensor_id;sensor_type;location;lat;lon;timestamp;pressure;altitude;pressure_sealevel;temperature;humidity
49709;BME280;35601;55.902;13.606;2023-11-21T00:00:09;100533.58;;;0.24;79.25
49709;BME280;35601;55.902;13.606;2023-11-21T00:02:34;100536.56;;;0.08;79.30
49709;BME280;35601;55.902;13.606;2023-11-21T00:04:59;100538.84;;;-0.01;79.62
49709;BME280;35601;55.902;13.606;2023-11-21T00:07:24;100543.47;;;-0.13;79.87
49709;BME280;35601;55.902;13.606;2023-11-21T00:09:50;100545.89;;;0.05;80.07
49709;BME280;35601;55.902;13.606;2023-11-21T00:12:15;100547.93;;;0.11;80.02
49709;BME280;35601;55.902;13.606;2023-11-21T00:14:40;100550.45;;;-0.10;80.23
49709;BME280;35601;55.902;13.606;2023-11-21T00:17:06;100548.89;;;0.10;80.17
49709;BME280;35601;55.902;13.606;2023-11-21T00:19:32;100546.96;;;0.08;80.32
49709;BME280;35601;55.902;13.606;2023-11-21T00:21:57;100548.26;;;-0.19;80.25
49709;BME280;35601;55.902;13.606;2023-11-21T00:24:23;100551.09;;;-0.12;80.11
49709;BME280;35601;55.902;13.606;2023-11-21T00:26:48;100554.65;;;0.02;80.61
49709;BME280;35601;55.902;13.606;2023-11-21T00:29:14;100558.09;;;-0.28;80.80
49709;BME280;35601;55.902;13.606;2023-11-21T00:31:39;100561.04;;;-0.07;81.03
49709;BME280;35601;55.902;13.606;2023-11-21T00:34:05;100560.63;;;-0.22;81.44
49709;BME280;35601;55.902;13.606;2023-11-21T00:36:30;100559.34;;;-0.31;81.61
49709;BME280;35601;55.902;13.606;2023-11-21T00:38:55;100563.48;;;-0.41;81.79
49709;BME280;35601;55.902;13.606;2023-11-21T00:41:21;100562.08;;;-0.39;81.59
49709;BME280;35601;55.902;13.606;2023-11-21T00:43:46;100559.08;;;-0.44;81.49
49709;BME280;35601;55.902;13.606;2023-11-21T00:46:11;100558.44;;;-0.54;81.70
49709;BME280;35601;55.902;13.606;2023-11-21T00:48:36;100562.78;;;-0.46;81.54
49709;BME280;35601;55.902;13.606;2023-11-21T00:51:02;100561.71;;;-0.46;81.36
49709;BME280;35601;55.902;13.606;2023-11-21T00:53:27;100560.47;;;-0.45;81.35
49709;BME280;35601;55.902;13.606;2023-11-21T00:55:53;100561.33;;;-0.64;81.35
49709;BME280;35601;55.902;13.606;2023-11-21T00:58:18;100564.71;;;-0.40;81.46
49709;BME280;35601;55.902;13.606;2023-11-21T01:00:43;100561.33;;;-0.37;81.41
49709;BME280;35601;55.902;13.606;2023-11-21T01:03:08;100563.47;;;-0.50;81.25
49709;BME280;35601;55.902;13.606;2023-11-21T01:05:34;100565.61;;;-0.21;81.00
49709;BME280;35601;55.902;13.606;2023-11-21T01:07:59;100571.14;;;-0.24;81.35
49709;BME280;35601;55.902;13.606;2023-11-21T01:10:24;100573.13;;;-0.24;81.41
49709;BME280;35601;55.902;13.606;2023-11-21T01:12:49;100578.65;;;-0.26;81.67
49709;BME280;35601;55.902;13.606;2023-11-21T01:15:15;100582.57;;;-0.34;81.64
49709;BME280;35601;55.902;13.606;2023-11-21T01:17:40;100587.35;;;-0.24;81.68
49709;BME280;35601;55.902;13.606;2023-11-21T01:20:06;100593.89;;;-0.18;81.61
49709;BME280;35601;55.902;13.606;2023-11-21T01:22:30;100597.06;;;-0.21;81.85
49709;BME280;35601;55.902;13.606;2023-11-21T01:24:55;100595.45;;;-0.24;82.00
49709;BME280;35601;55.902;13.606;2023-11-21T01:27:20;100598.56;;;-0.27;82.25
49709;BME280;35601;55.902;13.606;2023-11-21T01:29:46;100603.60;;;-0.24;82.11
49709;BME280;35601;55.902;13.606;2023-11-21T01:32:11;100603.23;;;-0.26;82.35
49709;BME280;35601;55.902;13.606;2023-11-21T01:34:38;100605.37;;;-0.29;82.53
49709;BME280;35601;55.902;13.606;2023-11-21T01:37:02;100609.18;;;-0.28;82.46
49709;BME280;35601;55.902;13.606;2023-11-21T01:39:27;100613.42;;;-0.14;82.05
49709;BME280;35601;55.902;13.606;2023-11-21T01:41:53;100615.03;;;-0.13;82.12
49709;BME280;35601;55.902;13.606;2023-11-21T01:44:18;100614.55;;;-0.13;81.81
49709;BME280;35601;55.902;13.606;2023-11-21T01:46:43;100615.73;;;-0.14;81.89
49709;BME280;35601;55.902;13.606;2023-11-21T01:49:10;100618.73;;;-0.11;82.07
49709;BME280;35601;55.902;13.606;2023-11-21T01:51:34;100625.38;;;-0.06;81.79
49709;BME280;35601;55.902;13.606;2023-11-21T01:53:59;100627.58;;;-0.10;82.05
49709;BME280;35601;55.902;13.606;2023-11-21T01:56:25;100625.06;;;-0.16;82.15
49709;BME280;35601;55.902;13.606;2023-11-21T01:58:51;100630.00;;;-0.27;82.53
49709;BME280;35601;55.902;13.606;2023-11-21T02:01:16;100639.12;;;-0.15;82.41
49709;BME280;35601;55.902;13.606;2023-11-21T02:03:41;100641.70;;;-0.08;82.01
49709;BME280;35601;55.902;13.606;2023-11-21T02:06:07;100647.71;;;-0.06;82.01
49709;BME280;35601;55.902;13.606;2023-11-21T02:08:31;100650.34;;;-0.18;82.15
49709;BME280;35601;55.902;13.606;2023-11-21T02:10:57;100650.34;;;-0.16;82.15
49709;BME280;35601;55.902;13.606;2023-11-21T02:13:22;100653.02;;;-0.20;82.16
49709;BME280;35601;55.902;13.606;2023-11-21T02:15:48;100657.47;;;-0.24;82.48
49709;BME280;35601;55.902;13.606;2023-11-21T02:18:13;100659.89;;;-0.15;82.21
49709;BME280;35601;55.902;13.606;2023-11-21T02:20:38;100661.60;;;-0.17;82.29
49709;BME280;35601;55.902;13.606;2023-11-21T02:23:04;100663.64;;;-0.19;82.45
49709;BME280;35601;55.902;13.606;2023-11-21T02:25:31;100667.83;;;-0.18;82.41
49709;BME280;35601;55.902;13.606;2023-11-21T02:27:55;100668.68;;;-0.23;82.64
49709;BME280;35601;55.902;13.606;2023-11-21T02:30:19;100669.22;;;-0.39;82.29
49709;BME280;35601;55.902;13.606;2023-11-21T02:32:44;100676.25;;;-0.26;82.51
49709;BME280;35601;55.902;13.606;2023-11-21T02:35:09;100675.43;;;-0.16;83.19
49709;BME280;35601;55.902;13.606;2023-11-21T02:37:34;100669.65;;;-0.04;82.98
49709;BME280;35601;55.902;13.606;2023-11-21T02:40:00;100671.84;;;-0.32;83.26
49709;BME280;35601;55.902;13.606;2023-11-21T02:42:25;100676.83;;;-0.06;83.32
49709;BME280;35601;55.902;13.606;2023-11-21T02:44:50;100680.53;;;-0.42;83.56
49709;BME280;35601;55.902;13.606;2023-11-21T02:47:15;100687.90;;;-0.18;83.15
49709;BME280;35601;55.902;13.606;2023-11-21T02:49:41;100695.19;;;-0.17;82.84
49709;BME280;35601;55.902;13.606;2023-11-21T02:52:06;100694.34;;;-0.13;82.95
49709;BME280;35601;55.902;13.606;2023-11-21T02:54:31;100691.18;;;-0.05;82.63
49709;BME280;35601;55.902;13.606;2023-11-21T02:56:57;100697.55;;;-0.17;82.94
49709;BME280;35601;55.902;13.606;2023-11-21T02:59:22;100701.90;;;-0.19;83.17
49709;BME280;35601;55.902;13.606;2023-11-21T03:01:47;100706.78;;;-0.24;83.40
49709;BME280;35601;55.902;13.606;2023-11-21T03:04:12;100709.57;;;-0.20;83.45
49709;BME280;35601;55.902;13.606;2023-11-21T03:06:37;100708.17;;;-0.26;83.57
49709;BME280;35601;55.902;13.606;2023-11-21T03:09:02;100712.46;;;-0.29;83.98
49709;BME280;35601;55.902;13.606;2023-11-21T03:11:27;100716.76;;;-0.58;84.91
49709;BME280;35601;55.902;13.606;2023-11-21T03:13:52;100718.10;;;-0.59;84.93
49709;BME280;35601;55.902;13.606;2023-11-21T03:16:18;100719.73;;;-0.45;84.59
49709;BME280;35601;55.902;13.606;2023-11-21T03:18:42;100728.84;;;-0.26;84.92
49709;BME280;35601;55.902;13.606;2023-11-21T03:21:08;100731.96;;;-0.48;85.01
49709;BME280;35601;55.902;13.606;2023-11-21T03:23:33;100733.72;;;-0.53;85.12
49709;BME280;35601;55.902;13.606;2023-11-21T03:25:59;100734.29;;;-0.35;84.46
49709;BME280;35601;55.902;13.606;2023-11-21T03:28:24;100735.49;;;-0.55;85.07
49709;BME280;35601;55.902;13.606;2023-11-21T03:30:49;100736.92;;;-0.35;84.50
49709;BME280;35601;55.902;13.606;2023-11-21T03:33:14;100739.00;;;0.10;84.67
49709;BME280;35601;55.902;13.606;2023-11-21T03:35:39;100744.90;;;-0.19;84.59
49709;BME280;35601;55.902;13.606;2023-11-21T03:38:04;100741.61;;;-0.24;85.05
49709;BME280;35601;55.902;13.606;2023-11-21T03:40:29;100748.77;;;-0.63;85.34
49709;BME280;35601;55.902;13.606;2023-11-21T03:42:55;100750.63;;;-0.23;85.97
49709;BME280;35601;55.902;13.606;2023-11-21T03:45:20;100752.10;;;-0.54;86.83
49709;BME280;35601;55.902;13.606;2023-11-21T03:47:45;100751.44;;;-0.60;87.59
49709;BME280;35601;55.902;13.606;2023-11-21T03:50:11;100760.30;;;-0.35;87.05
49709;BME280;35601;55.902;13.606;2023-11-21T03:52:37;100763.48;;;-0.30;86.84
49709;BME280;35601;55.902;13.606;2023-11-21T03:55:02;100765.24;;;-0.36;86.10
49709;BME280;35601;55.902;13.606;2023-11-21T03:57:27;100772.22;;;-0.48;86.65
49709;BME280;35601;55.902;13.606;2023-11-21T03:59:52;100781.60;;;-0.73;87.36
49709;BME280;35601;55.902;13.606;2023-11-21T04:02:17;100783.62;;;-0.19;86.52
49709;BME280;35601;55.902;13.606;2023-11-21T04:04:42;100790.21;;;-0.02;85.85
49709;BME280;35601;55.902;13.606;2023-11-21T04:07:07;100794.15;;;-0.61;85.62
49709;BME280;35601;55.902;13.606;2023-11-21T04:09:32;100794.01;;;-0.03;85.57
49709;BME280;35601;55.902;13.606;2023-11-21T04:11:58;100799.44;;;-0.24;85.60
49709;BME280;35601;55.902;13.606;2023-11-21T04:14:24;100800.17;;;-0.35;84.77
49709;BME280;35601;55.902;13.606;2023-11-21T04:16:49;100805.40;;;-0.23;84.48
49709;BME280;35601;55.902;13.606;2023-11-21T04:19:14;100811.24;;;-0.24;84.31
49709;BME280;35601;55.902;13.606;2023-11-21T04:21:40;100814.19;;;-0.28;84.44
49709;BME280;35601;55.902;13.606;2023-11-21T04:24:06;100820.20;;;-0.28;84.60
49709;BME280;35601;55.902;13.606;2023-11-21T04:26:31;100825.13;;;-0.27;84.42
49709;BME280;35601;55.902;13.606;2023-11-21T04:28:56;100826.54;;;-0.23;84.30
49709;BME280;35601;55.902;13.606;2023-11-21T04:31:21;100826.70;;;-0.21;84.30
49709;BME280;35601;55.902;13.606;2023-11-21T04:33:46;100829.89;;;-0.12;84.07
49709;BME280;35601;55.902;13.606;2023-11-21T04:36:11;100832.43;;;-0.05;83.60
49709;BME280;35601;55.902;13.606;2023-11-21T04:38:37;100835.89;;;-0.18;83.80
49709;BME280;35601;55.902;13.606;2023-11-21T04:41:02;100837.08;;;0.10;83.81
49709;BME280;35601;55.902;13.606;2023-11-21T04:43:27;100836.85;;;-0.19;83.71
49709;BME280;35601;55.902;13.606;2023-11-21T04:45:52;100840.58;;;-0.06;83.35
49709;BME280;35601;55.902;13.606;2023-11-21T04:48:17;100843.05;;;-0.05;83.06
49709;BME280;35601;55.902;13.606;2023-11-21T04:50:43;100846.51;;;0.04;82.78
49709;BME280;35601;55.902;13.606;2023-11-21T04:53:08;100849.67;;;0.02;82.80
49709;BME280;35601;55.902;13.606;2023-11-21T04:55:33;100852.48;;;0.13;82.44
49709;BME280;35601;55.902;13.606;2023-11-21T04:57:59;100849.25;;;0.10;82.34
49709;BME280;35601;55.902;13.606;2023-11-21T05:00:24;100855.32;;;0.10;82.23
49709;BME280;35601;55.902;13.606;2023-11-21T05:02:49;100859.41;;;0.14;82.22
49709;BME280;35601;55.902;13.606;2023-11-21T05:05:15;100862.67;;;0.09;82.31
49709;BME280;35601;55.902;13.606;2023-11-21T05:07:40;100869.84;;;-0.01;81.92
49709;BME280;35601;55.902;13.606;2023-11-21T05:10:07;100872.37;;;0.04;81.56
49709;BME280;35601;55.902;13.606;2023-11-21T05:12:32;100872.26;;;0.27;81.78
49709;BME280;35601;55.902;13.606;2023-11-21T05:14:57;100870.11;;;0.26;81.63
49709;BME280;35601;55.902;13.606;2023-11-21T05:17:23;100878.38;;;0.25;81.56
49709;BME280;35601;55.902;13.606;2023-11-21T05:19:48;100884.95;;;-0.15;81.98
49709;BME280;35601;55.902;13.606;2023-11-21T05:22:13;100887.74;;;0.09;81.94
49709;BME280;35601;55.902;13.606;2023-11-21T05:24:39;100893.31;;;0.05;82.05
49709;BME280;35601;55.902;13.606;2023-11-21T05:27:04;100897.52;;;0.13;81.65
49709;BME280;35601;55.902;13.606;2023-11-21T05:29:29;100895.37;;;0.13;81.70
49709;BME280;35601;55.902;13.606;2023-11-21T05:31:55;100900.81;;;-0.05;81.47
49709;BME280;35601;55.902;13.606;2023-11-21T05:34:20;100895.74;;;0.11;81.52
49709;BME280;35601;55.902;13.606;2023-11-21T05:36:45;100902.46;;;0.13;81.45
49709;BME280;35601;55.902;13.606;2023-11-21T05:39:11;100903.90;;;-0.14;81.33
49709;BME280;35601;55.902;13.606;2023-11-21T05:41:36;100902.84;;;0.15;81.38
49709;BME280;35601;55.902;13.606;2023-11-21T05:44:01;100913.11;;;0.02;81.62
49709;BME280;35601;55.902;13.606;2023-11-21T05:46:27;100912.47;;;0.04;81.53
49709;BME280;35601;55.902;13.606;2023-11-21T05:48:52;100915.17;;;0.11;81.42
49709;BME280;35601;55.902;13.606;2023-11-21T05:51:18;100920.99;;;0.17;81.06
49709;BME280;35601;55.902;13.606;2023-11-21T05:53:43;100931.13;;;0.16;81.17
49709;BME280;35601;55.902;13.606;2023-11-21T05:56:08;100930.02;;;0.25;81.00
49709;BME280;35601;55.902;13.606;2023-11-21T05:58:34;100933.17;;;0.17;81.29
49709;BME280;35601;55.902;13.606;2023-11-21T06:00:59;100943.48;;;0.18;81.07
49709;BME280;35601;55.902;13.606;2023-11-21T06:03:25;100940.35;;;0.32;80.77
49709;BME280;35601;55.902;13.606;2023-11-21T06:05:50;100942.12;;;0.30;80.83
49709;BME280;35601;55.902;13.606;2023-11-21T06:08:16;100946.08;;;0.03;80.94
49709;BME280;35601;55.902;13.606;2023-11-21T06:10:41;100953.87;;;0.02;80.80
49709;BME280;35601;55.902;13.606;2023-11-21T06:13:07;100958.95;;;0.15;80.44
49709;BME280;35601;55.902;13.606;2023-11-21T06:15:32;100964.24;;;0.31;80.58
49709;BME280;35601;55.902;13.606;2023-11-21T06:17:57;100969.63;;;0.38;80.31
49709;BME280;35601;55.902;13.606;2023-11-21T06:20:23;100973.90;;;0.05;80.36
49709;BME280;35601;55.902;13.606;2023-11-21T06:22:50;100971.52;;;-0.01;80.34
49709;BME280;35601;55.902;13.606;2023-11-21T06:25:14;100976.70;;;-0.02;80.88
49709;BME280;35601;55.902;13.606;2023-11-21T06:27:41;100983.42;;;-0.23;80.55
49709;BME280;35601;55.902;13.606;2023-11-21T06:30:06;100986.03;;;0.19;80.62
49709;BME280;35601;55.902;13.606;2023-11-21T06:32:30;100992.40;;;-0.07;80.38
49709;BME280;35601;55.902;13.606;2023-11-21T06:34:56;100994.91;;;0.04;80.01
49709;BME280;35601;55.902;13.606;2023-11-21T06:37:22;100998.02;;;0.03;79.60
49709;BME280;35601;55.902;13.606;2023-11-21T06:39:47;101004.51;;;-0.12;79.75
49709;BME280;35601;55.902;13.606;2023-11-21T06:42:12;101007.74;;;-0.11;79.60
49709;BME280;35601;55.902;13.606;2023-11-21T06:44:37;101017.45;;;-0.12;79.53
49709;BME280;35601;55.902;13.606;2023-11-21T06:47:03;101020.00;;;-0.05;79.47
49709;BME280;35601;55.902;13.606;2023-11-21T06:49:28;101018.28;;;-0.29;79.54
49709;BME280;35601;55.902;13.606;2023-11-21T06:51:53;101025.55;;;-0.13;79.76
49709;BME280;35601;55.902;13.606;2023-11-21T06:54:19;101033.82;;;-0.10;79.60
49709;BME280;35601;55.902;13.606;2023-11-21T06:56:44;101038.10;;;-0.13;79.46
49709;BME280;35601;55.902;13.606;2023-11-21T06:59:10;101044.59;;;-0.15;79.67
49709;BME280;35601;55.902;13.606;2023-11-21T07:01:35;101046.25;;;-0.16;79.38
49709;BME280;35601;55.902;13.606;2023-11-21T07:04:01;101049.33;;;-0.23;79.58
49709;BME280;35601;55.902;13.606;2023-11-21T07:06:26;101051.23;;;-0.18;79.13
49709;BME280;35601;55.902;13.606;2023-11-21T07:08:52;101056.66;;;-0.15;78.79
49709;BME280;35601;55.902;13.606;2023-11-21T07:11:17;101055.33;;;-0.25;78.71
49709;BME280;35601;55.902;13.606;2023-11-21T07:13:43;101057.89;;;-0.37;79.03
49709;BME280;35601;55.902;13.606;2023-11-21T07:16:08;101061.17;;;-0.36;79.02
49709;BME280;35601;55.902;13.606;2023-11-21T07:18:33;101065.26;;;-0.44;79.21
49709;BME280;35601;55.902;13.606;2023-11-21T07:20:58;101067.87;;;-0.37;78.68
49709;BME280;35601;55.902;13.606;2023-11-21T07:23:24;101069.82;;;-0.43;78.52
49709;BME280;35601;55.902;13.606;2023-11-21T07:25:49;101077.63;;;-0.48;78.48
49709;BME280;35601;55.902;13.606;2023-11-21T07:28:14;101082.94;;;-0.58;78.76
49709;BME280;35601;55.902;13.606;2023-11-21T07:30:40;101087.50;;;-0.66;78.92
49709;BME280;35601;55.902;13.606;2023-11-21T07:33:05;101088.30;;;-0.58;78.42
49709;BME280;35601;55.902;13.606;2023-11-21T07:35:30;101088.21;;;-0.55;78.08
49709;BME280;35601;55.902;13.606;2023-11-21T07:37:55;101091.28;;;-0.53;78.07
49709;BME280;35601;55.902;13.606;2023-11-21T07:40:20;101090.27;;;-0.60;78.22
49709;BME280;35601;55.902;13.606;2023-11-21T07:42:45;101095.78;;;-0.78;78.22
49709;BME280;35601;55.902;13.606;2023-11-21T07:45:10;101096.14;;;-0.91;78.79
49709;BME280;35601;55.902;13.606;2023-11-21T07:47:36;101097.71;;;-0.81;78.63
49709;BME280;35601;55.902;13.606;2023-11-21T07:50:02;101099.83;;;-0.92;78.52
49709;BME280;35601;55.902;13.606;2023-11-21T07:52:27;101108.49;;;-0.80;78.18
49709;BME280;35601;55.902;13.606;2023-11-21T07:54:52;101112.25;;;-0.88;78.12
49709;BME280;35601;55.902;13.606;2023-11-21T07:57:17;101113.59;;;-0.80;78.41
49709;BME280;35601;55.902;13.606;2023-11-21T07:59:43;101119.93;;;-1.01;78.20
49709;BME280;35601;55.902;13.606;2023-11-21T08:02:09;101119.98;;;-0.78;77.98
49709;BME280;35601;55.902;13.606;2023-11-21T08:04:34;101125.29;;;-1.01;77.89
49709;BME280;35601;55.902;13.606;2023-11-21T08:06:59;101126.35;;;-0.87;77.32
49709;BME280;35601;55.902;13.606;2023-11-21T08:09:25;101133.47;;;-0.90;77.14
49709;BME280;35601;55.902;13.606;2023-11-21T08:11:50;101132.74;;;-0.95;76.78
49709;BME280;35601;55.902;13.606;2023-11-21T08:14:16;101134.34;;;-0.64;77.13
49709;BME280;35601;55.902;13.606;2023-11-21T08:16:41;101137.66;;;-0.56;77.06
49709;BME280;35601;55.902;13.606;2023-11-21T08:19:06;101139.38;;;-0.64;76.99
49709;BME280;35601;55.902;13.606;2023-11-21T08:21:32;101143.98;;;-0.65;76.90
49709;BME280;35601;55.902;13.606;2023-11-21T08:23:57;101149.87;;;-0.66;76.46
49709;BME280;35601;55.902;13.606;2023-11-21T08:26:22;101152.96;;;-0.70;75.96
49709;BME280;35601;55.902;13.606;2023-11-21T08:28:47;101153.84;;;-0.57;75.82
49709;BME280;35601;55.902;13.606;2023-11-21T08:31:13;101154.02;;;-0.61;75.29
49709;BME280;35601;55.902;13.606;2023-11-21T08:33:39;101151.58;;;-0.51;74.86
49709;BME280;35601;55.902;13.606;2023-11-21T08:36:07;101155.28;;;-0.75;74.84
49709;BME280;35601;55.902;13.606;2023-11-21T08:38:29;101158.07;;;-0.43;74.45
49709;BME280;35601;55.902;13.606;2023-11-21T08:40:55;101162.50;;;-0.31;73.66
49709;BME280;35601;55.902;13.606;2023-11-21T08:43:20;101164.50;;;-0.45;72.84
49709;BME280;35601;55.902;13.606;2023-11-21T08:45:46;101166.66;;;-0.83;72.10
49709;BME280;35601;55.902;13.606;2023-11-21T08:48:11;101169.59;;;-0.85;71.57
49709;BME280;35601;55.902;13.606;2023-11-21T08:50:36;101173.88;;;-0.22;71.21
49709;BME280;35601;55.902;13.606;2023-11-21T08:53:01;101176.26;;;-0.51;70.28
49709;BME280;35601;55.902;13.606;2023-11-21T08:55:27;101173.24;;;-0.29;70.33
49709;BME280;35601;55.902;13.606;2023-11-21T08:57:52;101178.41;;;-0.26;69.51
49709;BME280;35601;55.902;13.606;2023-11-21T09:00:18;101183.34;;;-0.59;69.03
49709;BME280;35601;55.902;13.606;2023-11-21T09:02:43;101189.51;;;-0.20;68.79
49709;BME280;35601;55.902;13.606;2023-11-21T09:05:09;101197.18;;;-0.43;67.45
49709;BME280;35601;55.902;13.606;2023-11-21T09:07:34;101198.45;;;-0.76;67.41
49709;BME280;35601;55.902;13.606;2023-11-21T09:09:59;101205.04;;;-0.56;67.34
49709;BME280;35601;55.902;13.606;2023-11-21T09:12:26;101204.17;;;-0.42;66.56
49709;BME280;35601;55.902;13.606;2023-11-21T09:14:50;101202.43;;;-0.38;66.11
49709;BME280;35601;55.902;13.606;2023-11-21T09:17:15;101204.48;;;-0.35;66.42
49709;BME280;35601;55.902;13.606;2023-11-21T09:19:41;101210.88;;;-0.26;66.84
49709;BME280;35601;55.902;13.606;2023-11-21T09:22:06;101215.48;;;-0.20;66.31
49709;BME280;35601;55.902;13.606;2023-11-21T09:24:32;101219.83;;;-0.28;65.51
49709;BME280;35601;55.902;13.606;2023-11-21T09:26:57;101221.86;;;-0.29;65.72
49709;BME280;35601;55.902;13.606;2023-11-21T09:29:22;101228.79;;;-0.27;66.32
49709;BME280;35601;55.902;13.606;2023-11-21T09:31:47;101234.67;;;-0.23;66.18
49709;BME280;35601;55.902;13.606;2023-11-21T09:34:13;101236.15;;;-0.41;66.35
49709;BME280;35601;55.902;13.606;2023-11-21T09:36:38;101239.15;;;-0.19;66.52
49709;BME280;35601;55.902;13.606;2023-11-21T09:39:03;101244.38;;;-0.24;66.00
49709;BME280;35601;55.902;13.606;2023-11-21T09:41:34;101248.18;;;0.00;66.60
49709;BME280;35601;55.902;13.606;2023-11-21T09:43:56;101250.19;;;-0.43;66.53
49709;BME280;35601;55.902;13.606;2023-11-21T09:46:20;101250.00;;;0.01;66.53
49709;BME280;35601;55.902;13.606;2023-11-21T09:48:47;101246.89;;;-0.01;66.79
49709;BME280;35601;55.902;13.606;2023-11-21T09:51:11;101253.22;;;-0.25;66.89
49709;BME280;35601;55.902;13.606;2023-11-21T09:53:36;101257.07;;;-0.27;66.96
49709;BME280;35601;55.902;13.606;2023-11-21T09:56:01;101258.18;;;0.01;67.02
49709;BME280;35601;55.902;13.606;2023-11-21T09:58:27;101264.20;;;-0.13;67.33
49709;BME280;35601;55.902;13.606;2023-11-21T10:00:54;101265.41;;;0.15;66.36
49709;BME280;35601;55.902;13.606;2023-11-21T10:03:17;101272.29;;;0.17;66.32
49709;BME280;35601;55.902;13.606;2023-11-21T10:05:43;101274.94;;;0.20;66.22
49709;BME280;35601;55.902;13.606;2023-11-21T10:08:09;101274.22;;;0.17;65.50
49709;BME280;35601;55.902;13.606;2023-11-21T10:10:33;101269.15;;;0.38;65.34
49709;BME280;35601;55.902;13.606;2023-11-21T10:13:01;101273.15;;;-0.05;65.28
49709;BME280;35601;55.902;13.606;2023-11-21T10:15:24;101270.71;;;0.22;63.40
49709;BME280;35601;55.902;13.606;2023-11-21T10:17:49;101275.42;;;0.19;62.99
49709;BME280;35601;55.902;13.606;2023-11-21T10:20:14;101274.68;;;0.13;64.07
49709;BME280;35601;55.902;13.606;2023-11-21T10:22:41;101274.29;;;0.19;63.22
49709;BME280;35601;55.902;13.606;2023-11-21T10:25:06;101275.79;;;-0.06;62.64
49709;BME280;35601;55.902;13.606;2023-11-21T10:27:30;101280.87;;;0.31;62.21
49709;BME280;35601;55.902;13.606;2023-11-21T10:29:55;101281.09;;;0.25;61.67
49709;BME280;35601;55.902;13.606;2023-11-21T10:32:21;101284.39;;;0.45;61.64
49709;BME280;35601;55.902;13.606;2023-11-21T10:34:56;101283.95;;;0.62;62.16
49709;BME280;35601;55.902;13.606;2023-11-21T10:37:12;101287.32;;;0.12;61.22
49709;BME280;35601;55.902;13.606;2023-11-21T10:39:36;101293.32;;;0.51;61.57
49709;BME280;35601;55.902;13.606;2023-11-21T10:42:02;101292.50;;;0.83;60.84
49709;BME280;35601;55.902;13.606;2023-11-21T10:44:27;101294.67;;;0.48;60.80
49709;BME280;35601;55.902;13.606;2023-11-21T10:46:53;101294.92;;;0.69;60.18
49709;BME280;35601;55.902;13.606;2023-11-21T10:49:17;101295.23;;;0.52;60.63
49709;BME280;35601;55.902;13.606;2023-11-21T10:51:44;101297.41;;;0.48;60.74
49709;BME280;35601;55.902;13.606;2023-11-21T10:54:08;101299.96;;;1.00;59.94
49709;BME280;35601;55.902;13.606;2023-11-21T10:56:33;101300.05;;;0.82;59.89
49709;BME280;35601;55.902;13.606;2023-11-21T10:58:59;101298.23;;;0.96;59.63
49709;BME280;35601;55.902;13.606;2023-11-21T11:01:25;101300.08;;;1.02;59.29
49709;BME280;35601;55.902;13.606;2023-11-21T11:03:50;101306.24;;;0.96;58.76
49709;BME280;35601;55.902;13.606;2023-11-21T11:06:15;101306.86;;;0.78;58.08
49709;BME280;35601;55.902;13.606;2023-11-21T11:08:40;101302.23;;;0.90;58.39
49709;BME280;35601;55.902;13.606;2023-11-21T11:11:06;101302.99;;;0.92;58.75
49709;BME280;35601;55.902;13.606;2023-11-21T11:13:31;101302.53;;;0.96;59.01
49709;BME280;35601;55.902;13.606;2023-11-21T11:15:59;101306.72;;;-0.36;59.03
49709;BME280;35601;55.902;13.606;2023-11-21T11:18:22;101309.74;;;1.24;58.22
49709;BME280;35601;55.902;13.606;2023-11-21T11:20:47;101311.97;;;1.16;58.25
49709;BME280;35601;55.902;13.606;2023-11-21T11:23:26;101309.61;;;1.05;57.99
49709;BME280;35601;55.902;13.606;2023-11-21T11:25:47;101310.80;;;0.83;58.75
49709;BME280;35601;55.902;13.606;2023-11-21T11:28:07;101315.36;;;0.69;59.09
49709;BME280;35601;55.902;13.606;2023-11-21T11:30:40;101321.28;;;1.06;59.22
49709;BME280;35601;55.902;13.606;2023-11-21T11:33:00;101324.04;;;0.89;59.28
49709;BME280;35601;55.902;13.606;2023-11-21T11:35:24;101325.81;;;1.11;59.50
49709;BME280;35601;55.902;13.606;2023-11-21T11:37:44;101329.65;;;0.58;59.92
49709;BME280;35601;55.902;13.606;2023-11-21T11:40:11;101329.14;;;0.63;60.03
49709;BME280;35601;55.902;13.606;2023-11-21T11:42:34;101336.39;;;0.62;60.14
49709;BME280;35601;55.902;13.606;2023-11-21T11:45:00;101339.38;;;0.63;60.14
49709;BME280;35601;55.902;13.606;2023-11-21T11:47:27;101342.88;;;0.51;60.34
49709;BME280;35601;55.902;13.606;2023-11-21T11:49:58;101344.73;;;0.75;60.89
49709;BME280;35601;55.902;13.606;2023-11-21T11:52:31;101342.04;;;0.69;60.86
49709;BME280;35601;55.902;13.606;2023-11-21T11:54:43;101346.63;;;0.54;61.14
49709;BME280;35601;55.902;13.606;2023-11-21T11:57:07;101348.92;;;0.67;61.72
49709;BME280;35601;55.902;13.606;2023-11-21T12:01:58;101360.72;;;0.48;62.36
49709;BME280;35601;55.902;13.606;2023-11-21T12:04:25;101368.76;;;0.60;62.63
49709;BME280;35601;55.902;13.606;2023-11-21T12:06:52;101375.48;;;0.69;62.58
49709;BME280;35601;55.902;13.606;2023-11-21T12:09:18;101373.29;;;0.40;63.50
49709;BME280;35601;55.902;13.606;2023-11-21T12:11:41;101377.89;;;0.10;63.28
49709;BME280;35601;55.902;13.606;2023-11-21T12:14:06;101380.78;;;0.36;63.44
49709;BME280;35601;55.902;13.606;2023-11-21T12:16:32;101382.34;;;0.27;63.23
49709;BME280;35601;55.902;13.606;2023-11-21T12:18:56;101387.14;;;0.78;63.49
49709;BME280;35601;55.902;13.606;2023-11-21T12:21:22;101390.58;;;0.70;62.74
49709;BME280;35601;55.902;13.606;2023-11-21T12:23:47;101394.65;;;0.54;62.17
49709;BME280;35601;55.902;13.606;2023-11-21T12:26:12;101395.29;;;0.52;62.55
49709;BME280;35601;55.902;13.606;2023-11-21T12:28:37;101402.80;;;0.74;62.32
49709;BME280;35601;55.902;13.606;2023-11-21T12:31:03;101403.22;;;0.08;63.80
49709;BME280;35601;55.902;13.606;2023-11-21T12:33:28;101401.75;;;0.62;63.38